Time;durP1;ratioP1;P1;durP2;ratioP2;P2;SDS_P1;SDS_P2;PMS_P1;PMS_P2;Temp;Humidity;BMP_temperature;BMP_pressure;BME280_temperature;BME280_humidity;BME280_pressure;Samples;Min_cycle;Max_cycle;Signal;HPM_P1;HPM_P2
2023/08/30 00:01:37;;;;;;;;;;;;;;;20.86;91.89;94273.06;5134723;27;1987;-58
2023/08/30 00:04:03;;;;;;;;;;;;;;;20.71;93.41;94275.53;5134819;27;1036;-58
2023/08/30 00:06:29;;;;;;;;;;;;;;;20.50;93.35;94268.91;5134380;27;2004;-59
2023/08/30 00:08:57;;;;;;;;;;;;;;;20.63;92.40;94268.63;5134776;27;1060;-58
2023/08/30 00:11:23;;;;;;;;;;;;;;;20.61;92.81;94262.59;5116328;27;1045;-58
2023/08/30 00:13:49;;;;;;;;;;;;;;;20.55;94.01;94262.75;5134819;27;956;-58
2023/08/30 00:16:16;;;;;;;;;;;;;;;20.49;94.43;94269.97;5134363;27;1024;-58
2023/08/30 00:18:44;;;;;;;;;;;;;;;20.64;93.21;94280.28;5123762;27;2523;-58
2023/08/30 00:21:10;;;;;;;;;;;;;;;20.71;92.95;94291.00;5099710;28;1202;-58
2023/08/30 00:23:36;;;;;;;;;;;;;;;20.72;92.94;94289.97;5113835;28;1044;-58
2023/08/30 00:26:02;;;;;;;;;;;;;;;20.74;92.56;94285.91;5113751;28;1898;-58
2023/08/30 00:28:28;;;;;;;;;;;;;;;20.65;93.01;94288.19;5113921;28;985;-58
2023/08/30 00:30:55;;;;;;;;;;;;;;;20.61;92.74;94289.75;5113756;28;1036;-58
2023/08/30 00:33:21;;;;;;;;;;;;;;;20.47;94.64;94296.56;5113629;28;1037;-58
2023/08/30 00:35:54;;;;;;;;;;;;;;;20.44;94.25;94297.84;5113707;28;1025;-58
2023/08/30 00:38:20;;;;;;;;;;;;;;;20.46;94.26;94295.72;5113929;28;1210;-58
2023/08/30 00:40:47;;;;;;;;;;;;;;;20.50;94.48;94295.22;5113705;28;1874;-58
2023/08/30 00:43:12;;;;;;;;;;;;;;;20.51;94.92;94295.00;5113599;28;1099;-58
2023/08/30 00:45:40;;;;;;;;;;;;;;;20.39;94.44;94302.34;5113633;28;1067;-58
2023/08/30 00:48:06;;;;;;;;;;;;;;;20.35;94.21;94293.88;5113528;28;1906;-58
2023/08/30 00:50:32;;;;;;;;;;;;;;;20.27;94.16;94296.97;5114498;28;1115;-58
2023/08/30 00:52:58;;;;;;;;;;;;;;;20.32;93.87;94296.25;5118047;28;970;-58
2023/08/30 00:55:24;;;;;;;;;;;;;;;20.33;93.74;94290.56;5117910;28;960;-58
2023/08/30 00:57:50;;;;;;;;;;;;;;;20.36;93.19;94287.38;5106470;28;2955;-58
2023/08/30 01:00:17;;;;;;;;;;;;;;;20.36;93.28;94287.38;5097484;28;1033;-58
2023/08/30 01:02:43;;;;;;;;;;;;;;;20.25;94.05;94278.22;5097599;28;1342;-58
2023/08/30 01:05:09;;;;;;;;;;;;;;;20.10;94.03;94291.50;5100015;28;1096;-59
2023/08/30 01:07:35;;;;;;;;;;;;;;;19.97;94.84;94292.59;5117470;28;1913;-58
2023/08/30 01:10:01;;;;;;;;;;;;;;;20.00;94.92;94302.16;5117940;28;1036;-58
2023/08/30 01:12:37;;;;;;;;;;;;;;;20.22;93.29;94295.00;5117611;28;1036;-58
2023/08/30 01:15:03;;;;;;;;;;;;;;;20.29;93.32;94295.66;5117675;28;953;-58
2023/08/30 01:17:29;;;;;;;;;;;;;;;20.24;93.64;94297.44;5099573;28;1193;-58
2023/08/30 01:20:25;;;;;;;;;;;;;;;20.21;93.05;94289.81;5117682;28;945;-58
2023/08/30 01:22:50;;;;;;;;;;;;;;;20.11;93.69;94295.03;5137684;27;1193;-58
2023/08/30 01:25:16;;;;;;;;;;;;;;;19.94;94.25;94298.50;5137731;27;1020;-58
2023/08/30 01:27:43;;;;;;;;;;;;;;;19.93;94.36;94307.69;5137744;27;1918;-58
2023/08/30 01:30:10;;;;;;;;;;;;;;;19.90;93.97;94302.78;5137807;27;1063;-58
2023/08/30 01:32:37;;;;;;;;;;;;;;;19.90;94.61;94302.78;5144916;27;2591;-58
2023/08/30 01:35:04;;;;;;;;;;;;;;;19.78;94.50;94304.66;5158652;27;1024;-58
2023/08/30 01:37:32;;;;;;;;;;;;;;;19.54;95.63;94299.28;5158203;27;1108;-58
2023/08/30 01:39:58;;;;;;;;;;;;;;;19.50;96.48;94298.06;5158297;27;1582;-58
2023/08/30 01:42:26;;;;;;;;;;;;;;;19.65;95.90;94294.88;5139804;27;2962;-58
2023/08/30 01:44:57;;;;;;;;;;;;;;;19.73;95.57;94304.56;5137501;27;1052;-58
2023/08/30 01:47:27;;;;;;;;;;;;;;;19.81;95.33;94306.91;5137548;27;1984;-58
2023/08/30 01:49:53;;;;;;;;;;;;;;;19.83;95.40;94307.50;5137328;27;1130;-58
2023/08/30 01:52:20;;;;;;;;;;;;;;;19.84;95.25;94309.13;5137390;27;1199;-58
2023/08/30 01:54:47;;;;;;;;;;;;;;;19.65;96.16;94306.56;5137225;27;1044;-58
2023/08/30 01:57:13;;;;;;;;;;;;;;;19.58;96.40;94302.31;5137231;27;1059;-58
2023/08/30 01:59:39;;;;;;;;;;;;;;;19.55;97.13;94297.38;5137122;27;1084;-58
2023/08/30 02:02:05;;;;;;;;;;;;;;;19.68;95.93;94294.41;5135829;27;1194;-58
2023/08/30 02:04:34;;;;;;;;;;;;;;;19.94;94.87;94300.38;5137158;27;960;-58
2023/08/30 02:07:00;;;;;;;;;;;;;;;20.05;94.55;94294.94;5136840;27;1913;-59
2023/08/30 02:09:41;;;;;;;;;;;;;;;20.00;95.47;94286.69;5137061;27;965;-58
2023/08/30 02:12:09;;;;;;;;;;;;;;;19.99;95.36;94285.03;5136930;27;1032;-58
2023/08/30 02:14:36;;;;;;;;;;;;;;;19.99;95.23;94285.03;5136806;27;1284;-58
2023/08/30 02:17:02;;;;;;;;;;;;;;;19.97;95.41;94283.63;5137065;27;1113;-58
2023/08/30 02:19:29;;;;;;;;;;;;;;;20.03;94.98;94267.22;5136886;27;1335;-58
2023/08/30 02:21:55;;;;;;;;;;;;;;;20.03;95.85;94286.22;5136700;27;1165;-58
2023/08/30 02:24:21;;;;;;;;;;;;;;;19.99;96.04;94279.59;5136997;27;955;-58
2023/08/30 02:26:47;;;;;;;;;;;;;;;19.91;95.59;94284.59;5136559;27;1918;-58
2023/08/30 02:29:13;;;;;;;;;;;;;;;19.88;95.67;94291.31;5136465;27;1031;-58
2023/08/30 02:31:39;;;;;;;;;;;;;;;19.87;96.84;94290.50;5118371;27;1032;-58
2023/08/30 02:34:05;;;;;;;;;;;;;;;19.92;96.37;94283.53;5136842;27;1010;-57
2023/08/30 02:36:31;;;;;;;;;;;;;;;20.02;94.87;94292.69;5136694;27;1262;-58
2023/08/30 02:38:57;;;;;;;;;;;;;;;20.06;94.92;94290.34;5136752;27;966;-58
2023/08/30 02:41:23;;;;;;;;;;;;;;;20.10;95.48;94291.50;5136376;27;1040;-57
2023/08/30 02:43:49;;;;;;;;;;;;;;;20.05;96.57;94292.22;5135137;27;2469;-58
2023/08/30 02:46:14;;;;;;;;;;;;;;;20.02;97.54;94267.47;5136362;27;1988;-58
2023/08/30 02:48:40;;;;;;;;;;;;;;;20.14;96.60;94275.56;5136444;27;1040;-57
2023/08/30 02:51:06;;;;;;;;;;;;;;;20.23;95.46;94276.81;5136381;27;945;-58
2023/08/30 02:53:32;;;;;;;;;;;;;;;20.39;95.03;94275.19;5136343;27;967;-58
2023/08/30 02:55:58;;;;;;;;;;;;;;;20.44;94.31;94270.69;5136091;27;1114;-58
2023/08/30 02:58:24;;;;;;;;;;;;;;;20.46;93.91;94270.44;5135889;27;1020;-58
2023/08/30 03:00:50;;;;;;;;;;;;;;;20.51;93.96;94281.41;5136304;27;1044;-58
2023/08/30 03:03:17;;;;;;;;;;;;;;;20.38;95.79;94285.25;5135860;27;1647;-58
2023/08/30 03:05:43;;;;;;;;;;;;;;;20.18;97.14;94277.53;5128351;27;1076;-57
2023/08/30 03:08:08;;;;;;;;;;;;;;;20.09;97.49;94285.25;5115284;28;1906;-59
2023/08/30 03:10:34;;;;;;;;;;;;;;;20.03;97.13;94288.09;5115207;28;992;-57
2023/08/30 03:13:00;;;;;;;;;;;;;;;20.06;98.47;94287.63;5114785;28;1057;-56
2023/08/30 03:15:26;;;;;;;;;;;;;;;20.00;99.27;94296.72;5115310;28;1001;-57
2023/08/30 03:17:52;;;;;;;;;;;;;;;20.00;98.60;94302.97;5115275;28;972;-57
2023/08/30 03:20:19;;;;;;;;;;;;;;;20.22;98.08;94302.28;5115074;28;1075;-56
2023/08/30 03:22:44;;;;;;;;;;;;;;;20.46;97.61;94311.19;5114845;28;1146;-57
2023/08/30 03:25:10;;;;;;;;;;;;;;;20.50;98.11;94314.22;5115159;28;978;-57
2023/08/30 03:27:36;;;;;;;;;;;;;;;20.44;99.76;94318.75;5131557;27;2488;-57
2023/08/30 03:30:03;;;;;;;;;;;;;;;20.27;100.00;94313.25;5135721;27;1226;-57
2023/08/30 03:32:32;;;;;;;;;;;;;;;20.23;100.00;94317.53;5135454;27;961;-57
2023/08/30 03:34:57;;;;;;;;;;;;;;;20.35;100.00;94309.34;5130276;27;1046;-57
2023/08/30 03:37:23;;;;;;;;;;;;;;;20.38;100.00;94306.16;5094472;28;996;-57
2023/08/30 03:39:49;;;;;;;;;;;;;;;20.36;100.00;94314.53;5094257;28;1017;-57
2023/08/30 03:42:15;;;;;;;;;;;;;;;20.27;100.00;94311.38;5094024;28;1036;-57
2023/08/30 03:44:41;;;;;;;;;;;;;;;20.08;100.00;94326.19;5094360;28;974;-57
2023/08/30 03:47:07;;;;;;;;;;;;;;;19.97;100.00;94325.13;5094351;28;1906;-57
2023/08/30 03:49:33;;;;;;;;;;;;;;;20.11;100.00;94324.88;5094296;28;1028;-57
2023/08/30 03:51:59;;;;;;;;;;;;;;;20.28;100.00;94325.78;5093937;28;1065;-58
2023/08/30 03:54:25;;;;;;;;;;;;;;;20.33;100.00;94328.56;5093875;28;1041;-57
2023/08/30 03:56:51;;;;;;;;;;;;;;;20.25;100.00;94345.25;5093845;28;1032;-57
2023/08/30 03:59:17;;;;;;;;;;;;;;;20.13;100.00;94344.44;5093794;28;1033;-57
2023/08/30 04:01:44;;;;;;;;;;;;;;;20.22;100.00;94348.44;5093872;28;1080;-57
2023/08/30 04:04:10;;;;;;;;;;;;;;;20.16;100.00;94352.13;5094049;28;968;-57
2023/08/30 04:06:36;;;;;;;;;;;;;;;20.19;100.00;94347.03;5108489;28;1983;-58
2023/08/30 04:09:02;;;;;;;;;;;;;;;20.32;100.00;94354.09;5113941;28;1168;-57
2023/08/30 04:11:28;;;;;;;;;;;;;;;20.43;100.00;94349.66;5114005;28;1045;-56
2023/08/30 04:13:53;;;;;;;;;;;;;;;20.36;100.00;94349.81;5114111;28;1044;-57
2023/08/30 04:16:19;;;;;;;;;;;;;;;20.32;100.00;94337.81;5114296;28;1044;-57
2023/08/30 04:18:45;;;;;;;;;;;;;;;20.39;100.00;94349.31;5114211;28;1189;-57
2023/08/30 04:21:11;;;;;;;;;;;;;;;20.33;100.00;94360.31;5113821;28;1173;-57
2023/08/30 04:23:37;;;;;;;;;;;;;;;20.16;100.00;94365.69;5113990;28;1119;-56
2023/08/30 04:26:03;;;;;;;;;;;;;;;20.23;100.00;94364.47;5095157;28;1983;-57
2023/08/30 04:28:29;;;;;;;;;;;;;;;20.33;100.00;94363.03;5113809;28;1052;-56
2023/08/30 04:30:56;;;;;;;;;;;;;;;20.39;100.00;94362.88;5114149;28;1012;-56
2023/08/30 04:33:22;;;;;;;;;;;;;;;20.44;100.00;94364.91;5113840;28;1056;-58
2023/08/30 04:35:52;;;;;;;;;;;;;;;20.43;100.00;94361.38;5114020;28;1040;-58
2023/08/30 04:38:18;;;;;;;;;;;;;;;20.41;100.00;94368.09;5113764;28;1045;-57
2023/08/30 04:40:44;;;;;;;;;;;;;;;20.32;100.00;94366.81;5113640;28;1119;-57
2023/08/30 04:43:10;;;;;;;;;;;;;;;20.40;100.00;94367.25;5114074;28;1053;-57
2023/08/30 04:45:36;;;;;;;;;;;;;;;20.55;100.00;94353.16;5113300;28;2474;-57
2023/08/30 04:48:02;;;;;;;;;;;;;;;20.63;100.00;94366.38;5133615;27;2878;-57
2023/08/30 04:50:28;;;;;;;;;;;;;;;20.70;100.00;94376.25;5134114;28;1126;-58
2023/08/30 04:52:54;;;;;;;;;;;;;;;20.64;100.00;94383.50;5134504;28;969;-58
2023/08/30 04:55:20;;;;;;;;;;;;;;;20.62;100.00;94382.91;5134280;28;1031;-57
2023/08/30 04:57:47;;;;;;;;;;;;;;;20.74;100.00;94385.59;5134424;28;1047;-57
2023/08/30 05:00:13;;;;;;;;;;;;;;;20.74;100.00;94383.69;5134399;28;976;-57
2023/08/30 05:02:40;;;;;;;;;;;;;;;20.78;100.00;94378.59;5134140;28;1095;-57
2023/08/30 05:05:07;;;;;;;;;;;;;;;20.85;100.00;94380.09;5134078;28;1258;-58
2023/08/30 05:07:33;;;;;;;;;;;;;;;20.81;100.00;94381.66;5134088;28;1905;-58
2023/08/30 05:09:59;;;;;;;;;;;;;;;20.78;100.00;94384.84;5134078;28;1032;-57
2023/08/30 05:12:25;;;;;;;;;;;;;;;20.77;100.00;94376.94;5133916;28;1320;-57
2023/08/30 05:14:50;;;;;;;;;;;;;;;20.90;100.00;94386.69;5133995;28;1099;-57
2023/08/30 05:17:16;;;;;;;;;;;;;;;20.97;100.00;94392.81;5132901;27;2478;-58
2023/08/30 05:19:42;;;;;;;;;;;;;;;20.92;100.00;94390.00;5133957;28;1032;-57
2023/08/30 05:22:08;;;;;;;;;;;;;;;20.90;100.00;94394.84;5134264;28;1375;-57
2023/08/30 05:24:34;;;;;;;;;;;;;;;20.99;100.00;94399.63;5115774;28;1982;-57
2023/08/30 05:27:00;;;;;;;;;;;;;;;21.04;100.00;94398.91;5115928;28;1909;-57
2023/08/30 05:29:26;;;;;;;;;;;;;;;21.02;100.00;94403.78;5134052;28;967;-57
2023/08/30 05:31:52;;;;;;;;;;;;;;;21.08;100.00;94402.78;5134220;28;1047;-57
2023/08/30 05:34:18;;;;;;;;;;;;;;;21.00;100.00;94414.03;5133944;28;954;-57
2023/08/30 05:36:44;;;;;;;;;;;;;;;20.93;100.00;94406.06;5135031;27;1561;-56
2023/08/30 05:39:10;;;;;;;;;;;;;;;20.83;100.00;94408.56;5137560;27;1048;-57
2023/08/30 05:41:36;;;;;;;;;;;;;;;20.70;100.00;94404.28;5137757;27;1035;-57
2023/08/30 05:44:02;;;;;;;;;;;;;;;20.73;100.00;94408.38;5137710;27;972;-57
2023/08/30 05:46:28;;;;;;;;;;;;;;;20.61;100.00;94413.88;5137609;27;1913;-57
2023/08/30 05:48:54;;;;;;;;;;;;;;;20.62;100.00;94420.94;5137752;27;962;-57
2023/08/30 05:51:20;;;;;;;;;;;;;;;20.82;100.00;94420.50;5137622;27;973;-57
2023/08/30 05:53:46;;;;;;;;;;;;;;;21.09;100.00;94422.63;5137278;27;1076;-57
2023/08/30 05:56:12;;;;;;;;;;;;;;;21.00;100.00;94419.47;5137498;27;1051;-57
2023/08/30 05:58:38;;;;;;;;;;;;;;;21.10;100.00;94424.28;5148000;27;2871;-57
2023/08/30 06:01:06;;;;;;;;;;;;;;;21.11;100.00;94415.88;5157920;27;850;-57
2023/08/30 06:03:32;;;;;;;;;;;;;;;21.11;100.00;94418.59;5157907;27;1040;-57
2023/08/30 06:05:58;;;;;;;;;;;;;;;21.31;100.00;94409.97;5157637;27;1082;-57
2023/08/30 06:08:24;;;;;;;;;;;;;;;21.50;100.00;94418.75;5157593;27;1910;-57
2023/08/30 06:10:50;;;;;;;;;;;;;;;21.50;100.00;94418.75;5157973;27;1055;-57
2023/08/30 06:13:15;;;;;;;;;;;;;;;21.36;100.00;94420.94;5137758;27;2544;-57
2023/08/30 06:15:41;;;;;;;;;;;;;;;21.21;100.00;94417.97;5116487;28;961;-57
2023/08/30 06:18:07;;;;;;;;;;;;;;;21.31;100.00;94418.13;5116549;28;1048;-57
2023/08/30 06:20:33;;;;;;;;;;;;;;;21.55;100.00;94427.00;5117229;27;1166;-57
2023/08/30 06:23:02;;;;;;;;;;;;;;;21.52;100.00;94426.66;5136785;27;1047;-57
2023/08/30 06:25:28;;;;;;;;;;;;;;;21.51;100.00;94423.09;5136523;27;1023;-57
2023/08/30 06:27:58;;;;;;;;;;;;;;;21.61;100.00;94417.03;5136895;27;1926;-57
2023/08/30 06:30:25;;;;;;;;;;;;;;;21.66;97.77;94419.00;5136538;27;1067;-57
2023/08/30 06:32:51;;;;;;;;;;;;;;;21.73;98.29;94419.66;5136849;27;1036;-57
2023/08/30 06:35:17;;;;;;;;;;;;;;;21.67;98.69;94418.75;5136496;27;969;-57
2023/08/30 06:37:43;;;;;;;;;;;;;;;21.85;96.91;94414.94;5136460;27;1006;-57
2023/08/30 06:40:09;;;;;;;;;;;;;;;21.82;93.88;94415.44;5136662;27;989;-57
2023/08/30 06:42:35;;;;;;;;;;;;;;;21.97;93.74;94418.38;5136671;27;973;-57
2023/08/30 06:45:02;;;;;;;;;;;;;;;22.10;91.03;94413.66;5136561;27;1054;-57
2023/08/30 06:47:28;;;;;;;;;;;;;;;22.18;87.49;94429.56;5136336;27;1979;-57
2023/08/30 06:49:54;;;;;;;;;;;;;;;22.13;89.92;94421.31;5135676;27;1134;-57
2023/08/30 06:52:20;;;;;;;;;;;;;;;22.24;89.51;94428.56;5117948;27;1045;-57
2023/08/30 06:54:47;;;;;;;;;;;;;;;22.33;88.39;94431.69;5115404;27;3136;-57
2023/08/30 06:57:13;;;;;;;;;;;;;;;22.66;86.93;94430.75;5115369;28;1072;-58
2023/08/30 06:59:39;;;;;;;;;;;;;;;22.88;83.46;94427.19;5115481;28;1028;-57
2023/08/30 07:02:05;;;;;;;;;;;;;;;23.15;84.28;94428.06;5100311;27;2526;-56
2023/08/30 07:04:31;;;;;;;;;;;;;;;23.72;81.67;94425.84;5135895;27;1016;-56
2023/08/30 07:06:57;;;;;;;;;;;;;;;23.94;81.98;94426.59;5135422;27;1975;-56
2023/08/30 07:09:28;;;;;;;;;;;;;;;23.85;79.14;94435.53;5135659;27;1036;-56
2023/08/30 07:11:55;;;;;;;;;;;;;;;24.23;78.74;94439.88;5136135;27;1036;-56
2023/08/30 07:14:21;;;;;;;;;;;;;;;24.38;76.53;94432.84;5135716;27;1283;-56
2023/08/30 07:16:49;;;;;;;;;;;;;;;24.45;75.17;94431.50;5135076;27;991;-56
2023/08/30 07:19:15;;;;;;;;;;;;;;;24.57;76.13;94434.09;5135427;27;1102;-56
2023/08/30 07:21:42;;;;;;;;;;;;;;;24.40;75.33;94427.94;5135583;27;1275;-56
2023/08/30 07:24:08;;;;;;;;;;;;;;;24.06;73.13;94431.03;5135450;27;1039;-56
2023/08/30 07:26:34;;;;;;;;;;;;;;;23.99;75.70;94430.44;5135252;27;1910;-56
2023/08/30 07:29:00;;;;;;;;;;;;;;;24.14;75.44;94430.53;5135581;27;969;-56
2023/08/30 07:31:26;;;;;;;;;;;;;;;24.23;76.41;94426.22;5135234;27;1102;-56
2023/08/30 07:33:52;;;;;;;;;;;;;;;24.27;75.32;94426.50;5135570;27;1032;-56
2023/08/30 07:36:18;;;;;;;;;;;;;;;24.46;75.59;94432.34;5135065;27;1028;-56
2023/08/30 07:38:44;;;;;;;;;;;;;;;24.30;75.01;94426.81;5135224;27;1090;-56
2023/08/30 07:41:10;;;;;;;;;;;;;;;24.20;76.33;94426.75;5135101;27;1149;-56
2023/08/30 07:43:36;;;;;;;;;;;;;;;23.90;77.32;94420.00;5135247;27;1060;-56
2023/08/30 07:46:02;;;;;;;;;;;;;;;23.97;77.38;94439.69;5135008;27;1039;-56
2023/08/30 07:48:28;;;;;;;;;;;;;;;24.10;77.03;94440.34;5134966;27;1910;-56
2023/08/30 07:50:54;;;;;;;;;;;;;;;24.08;76.05;94431.59;5134961;27;1027;-56
2023/08/30 07:53:20;;;;;;;;;;;;;;;24.17;75.57;94436.28;5134858;27;1086;-56
2023/08/30 07:55:49;;;;;;;;;;;;;;;24.22;75.86;94440.94;5135171;27;1036;-56
2023/08/30 07:58:16;;;;;;;;;;;;;;;24.91;73.62;94439.16;5134737;27;1048;-56
2023/08/30 08:00:43;;;;;;;;;;;;;;;25.41;69.17;94434.91;5133875;27;1016;-56
2023/08/30 08:03:10;;;;;;;;;;;;;;;25.88;68.81;94438.50;5135085;27;1048;-57
2023/08/30 08:05:36;;;;;;;;;;;;;;;26.18;66.42;94434.94;5128515;27;1079;-57
2023/08/30 08:08:03;;;;;;;;;;;;;;;26.43;65.78;94428.56;5114350;28;1914;-56
2023/08/30 08:10:33;;;;;;;;;;;;;;;26.58;65.74;94438.66;5114275;28;991;-57
2023/08/30 08:12:59;;;;;;;;;;;;;;;26.55;66.49;94439.22;5114095;28;1028;-56
2023/08/30 08:15:26;;;;;;;;;;;;;;;26.54;65.99;94434.84;5114068;28;1019;-55
2023/08/30 08:17:52;;;;;;;;;;;;;;;26.61;65.47;94424.41;5114063;28;1045;-57
2023/08/30 08:20:18;;;;;;;;;;;;;;;26.70;64.91;94427.41;5113678;27;2478;-57
2023/08/30 08:22:44;;;;;;;;;;;;;;;26.75;64.01;94426.56;5114795;27;1232;-57
2023/08/30 08:25:11;;;;;;;;;;;;;;;26.86;64.39;94425.41;5113808;28;1096;-56
2023/08/30 08:27:37;;;;;;;;;;;;;;;26.93;65.09;94425.94;5113955;28;1990;-57
2023/08/30 08:30:04;;;;;;;;;;;;;;;27.07;64.20;94426.13;5113847;28;1037;-57
2023/08/30 08:32:30;;;;;;;;;;;;;;;26.95;61.95;94415.50;5113723;28;1119;-56
2023/08/30 08:34:56;;;;;;;;;;;;;;;27.07;64.91;94420.66;5113724;28;1040;-57
2023/08/30 08:37:22;;;;;;;;;;;;;;;27.22;62.36;94415.09;5113980;28;954;-56
2023/08/30 08:39:51;;;;;;;;;;;;;;;27.17;58.33;94417.06;5112882;28;2512;-56
2023/08/30 08:42:18;;;;;;;;;;;;;;;27.39;60.92;94416.66;5113640;28;1088;-57
2023/08/30 08:44:46;;;;;;;;;;;;;;;27.59;61.47;94413.78;5113980;28;975;-57
2023/08/30 08:47:12;;;;;;;;;;;;;;;27.68;59.30;94414.00;5122551;28;2492;-57
2023/08/30 08:49:38;;;;;;;;;;;;;;;27.56;59.39;94413.53;5134154;28;993;-57
2023/08/30 08:52:04;;;;;;;;;;;;;;;27.65;58.81;94411.81;5134114;28;1032;-57
2023/08/30 08:54:30;;;;;;;;;;;;;;;27.78;57.22;94415.84;5134029;28;895;-56
2023/08/30 08:56:57;;;;;;;;;;;;;;;27.89;55.26;94417.41;5134234;28;992;-56
2023/08/30 08:59:23;;;;;;;;;;;;;;;27.77;57.69;94412.25;5134022;28;1036;-57
2023/08/30 09:01:50;;;;;;;;;;;;;;;27.68;54.92;94415.91;5134081;28;1095;-57
2023/08/30 09:04:16;;;;;;;;;;;;;;;27.72;57.86;94415.06;5134214;28;999;-57
2023/08/30 09:06:43;;;;;;;;;;;;;;;27.07;57.51;94412.41;5149716;27;2023;-57
2023/08/30 09:09:09;;;;;;;;;;;;;;;26.80;58.34;94402.69;5155002;27;976;-57
2023/08/30 09:11:35;;;;;;;;;;;;;;;26.93;57.58;94403.19;5155709;27;1095;-57
2023/08/30 09:14:01;;;;;;;;;;;;;;;27.34;59.29;94395.56;5159056;27;1006;-57
2023/08/30 09:16:27;;;;;;;;;;;;;;;27.59;57.72;94399.25;5158933;27;987;-57
2023/08/30 09:18:57;;;;;;;;;;;;;;;27.96;56.67;94393.16;5158639;27;1056;-57
2023/08/30 09:21:23;;;;;;;;;;;;;;;27.91;55.92;94395.16;5150226;27;1219;-57
2023/08/30 09:23:56;;;;;;;;;;;;;;;28.17;56.17;94393.81;5138190;27;1056;-57
2023/08/30 09:26:22;;;;;;;;;;;;;;;28.46;53.93;94394.84;5137823;27;1905;-57
2023/08/30 09:28:48;;;;;;;;;;;;;;;28.51;55.98;94392.88;5138050;27;962;-57
2023/08/30 09:31:20;;;;;;;;;;;;;;;28.46;55.23;94392.09;5137580;27;1056;-57
2023/08/30 09:33:49;;;;;;;;;;;;;;;28.22;53.18;94390.19;5137853;27;965;-56
2023/08/30 09:36:15;;;;;;;;;;;;;;;28.27;54.62;94392.03;5137508;27;1036;-57
2023/08/30 09:38:47;;;;;;;;;;;;;;;28.14;55.34;94393.56;5137521;27;1027;-56
2023/08/30 09:41:13;;;;;;;;;;;;;;;27.81;55.89;94383.13;5137500;27;965;-57
2023/08/30 09:43:42;;;;;;;;;;;;;;;27.55;54.50;94376.22;5137353;27;2510;-57
2023/08/30 09:46:08;;;;;;;;;;;;;;;27.55;54.73;94377.03;5158029;27;1079;-56
2023/08/30 09:48:34;;;;;;;;;;;;;;;27.84;54.45;94381.72;5158208;27;1905;-57
2023/08/30 09:51:02;;;;;;;;;;;;;;;27.80;52.04;94377.91;5158189;27;1056;-57
2023/08/30 09:53:29;;;;;;;;;;;;;;;27.74;55.57;94374.41;5157934;27;1020;-56
2023/08/30 09:55:57;;;;;;;;;;;;;;;27.77;54.71;94364.75;5158042;27;965;-57
2023/08/30 09:58:24;;;;;;;;;;;;;;;27.83;49.09;94372.66;5157857;27;1116;-57
2023/08/30 10:00:50;;;;;;;;;;;;;;;28.04;49.10;94372.50;5157865;27;1099;-57
2023/08/30 10:03:19;;;;;;;;;;;;;;;28.24;53.13;94368.72;5158221;27;1022;-57
2023/08/30 10:05:45;;;;;;;;;;;;;;;28.28;50.06;94366.22;5157777;27;1249;-58
2023/08/30 10:08:13;;;;;;;;;;;;;;;28.42;51.46;94364.41;5157551;27;1902;-57
2023/08/30 10:10:40;;;;;;;;;;;;;;;28.58;51.13;94363.13;5157826;27;1002;-57
2023/08/30 10:13:06;;;;;;;;;;;;;;;28.48;49.66;94356.94;5153937;27;2470;-57
2023/08/30 10:15:34;;;;;;;;;;;;;;;28.65;49.71;94353.69;5157778;27;1130;-56
2023/08/30 10:18:00;;;;;;;;;;;;;;;28.72;48.43;94359.66;5157723;27;965;-57
2023/08/30 10:20:27;;;;;;;;;;;;;;;28.57;47.41;94357.91;5157348;27;1164;-57
2023/08/30 10:22:53;;;;;;;;;;;;;;;28.73;48.13;94353.06;5135689;27;1028;-57
2023/08/30 10:25:22;;;;;;;;;;;;;;;28.87;47.49;94356.72;5136564;27;980;-57
2023/08/30 10:27:49;;;;;;;;;;;;;;;29.05;47.11;94355.09;5136483;27;2040;-57
2023/08/30 10:30:16;;;;;;;;;;;;;;;29.23;45.48;94358.19;5136756;27;969;-56
2023/08/30 10:32:43;;;;;;;;;;;;;;;29.32;47.06;94357.19;5135532;27;2570;-57
2023/08/30 10:35:13;;;;;;;;;;;;;;;29.48;45.55;94355.03;5136750;27;1020;-56
2023/08/30 10:37:39;;;;;;;;;;;;;;;29.57;45.04;94342.22;5136509;27;1040;-57
2023/08/30 10:40:05;;;;;;;;;;;;;;;29.58;44.17;94349.38;5135556;27;2556;-57
2023/08/30 10:42:32;;;;;;;;;;;;;;;29.63;45.80;94347.63;5136309;27;1019;-57
2023/08/30 10:45:04;;;;;;;;;;;;;;;29.52;44.50;94349.72;5144023;27;2475;-57
2023/08/30 10:47:31;;;;;;;;;;;;;;;29.38;44.17;94344.19;5157193;27;1909;-57
2023/08/30 10:49:57;;;;;;;;;;;;;;;29.48;46.02;94343.19;5157315;27;1039;-57
2023/08/30 10:52:24;;;;;;;;;;;;;;;29.28;42.60;94358.91;5156812;27;1952;-57
2023/08/30 10:54:50;;;;;;;;;;;;;;;29.32;44.36;94350.88;5156806;27;1051;-57
2023/08/30 10:57:24;;;;;;;;;;;;;;;29.41;42.83;94351.84;5156836;27;1064;-56
2023/08/30 11:00:09;;;;;;;;;;;;;;;29.56;43.38;94345.28;5156935;27;1032;-57
2023/08/30 11:02:36;;;;;;;;;;;;;;;29.38;42.52;94345.00;5156914;27;919;-57
2023/08/30 11:05:03;;;;;;;;;;;;;;;29.05;43.08;94349.59;5156510;27;1198;-58
2023/08/30 11:07:31;;;;;;;;;;;;;;;28.96;40.86;94352.19;5156344;27;1994;-57
2023/08/30 11:09:57;;;;;;;;;;;;;;;28.62;39.91;94355.94;5156698;27;1051;-56
2023/08/30 11:12:25;;;;;;;;;;;;;;;28.18;41.59;94351.47;5156389;27;1079;-57
2023/08/30 11:14:54;;;;;;;;;;;;;;;28.06;42.15;94341.97;5156518;27;1007;-56
2023/08/30 11:17:20;;;;;;;;;;;;;;;28.11;41.52;94350.16;5156228;27;1032;-57
2023/08/30 11:19:49;;;;;;;;;;;;;;;27.84;43.75;94335.84;5156622;27;1039;-57
2023/08/30 11:22:16;;;;;;;;;;;;;;;27.88;43.45;94336.09;5140394;27;1964;-57
2023/08/30 11:24:43;;;;;;;;;;;;;;;28.30;43.50;94342.00;5135724;27;1035;-57
2023/08/30 11:27:09;;;;;;;;;;;;;;;28.63;42.07;94337.53;5135373;27;1902;-57
2023/08/30 11:29:35;;;;;;;;;;;;;;;28.97;41.61;94342.84;5135554;27;970;-57
2023/08/30 11:32:01;;;;;;;;;;;;;;;29.12;37.78;94344.56;5144099;27;2526;-56
2023/08/30 11:34:27;;;;;;;;;;;;;;;28.83;38.94;94346.59;5155706;27;1044;-57
2023/08/30 11:36:53;;;;;;;;;;;;;;;28.69;41.38;94338.28;5155947;27;1036;-57
2023/08/30 11:39:20;;;;;;;;;;;;;;;28.74;41.52;94333.53;5156153;27;1000;-57
2023/08/30 11:41:46;;;;;;;;;;;;;;;28.70;42.89;94328.88;5151110;27;2631;-56
2023/08/30 11:44:12;;;;;;;;;;;;;;;28.71;40.04;94333.28;5155768;27;1119;-57
2023/08/30 11:46:38;;;;;;;;;;;;;;;28.51;40.95;94332.38;5155701;27;1981;-56
2023/08/30 11:49:04;;;;;;;;;;;;;;;28.76;39.66;94334.03;5156041;27;948;-57
2023/08/30 11:51:31;;;;;;;;;;;;;;;29.01;40.75;94323.78;5155825;27;953;-57
2023/08/30 11:53:57;;;;;;;;;;;;;;;28.80;39.25;94324.09;5155890;27;1051;-57
2023/08/30 11:56:23;;;;;;;;;;;;;;;28.56;39.38;94329.63;5155746;27;977;-57
2023/08/30 11:58:51;;;;;;;;;;;;;;;28.68;39.28;94325.63;5155568;27;1087;-57
2023/08/30 12:01:18;;;;;;;;;;;;;;;28.78;41.26;94331.81;5155781;27;957;-57
2023/08/30 12:03:49;;;;;;;;;;;;;;;28.74;38.52;94335.44;5155648;27;1032;-57
2023/08/30 12:06:15;;;;;;;;;;;;;;;28.49;40.42;94322.81;5155228;27;1230;-57
2023/08/30 12:08:41;;;;;;;;;;;;;;;28.40;39.67;94317.13;5155570;27;1910;-56
2023/08/30 12:11:17;;;;;;;;;;;;;;;28.61;40.37;94312.25;5149436;27;2488;-57
2023/08/30 12:13:42;;;;;;;;;;;;;;;28.90;39.64;94314.88;5134217;27;2256;-57
2023/08/30 12:16:15;;;;;;;;;;;;;;;29.09;39.81;94309.34;5152446;27;2850;-57
2023/08/30 12:18:41;;;;;;;;;;;;;;;29.21;39.42;94308.94;5137126;27;981;-57
2023/08/30 12:21:07;;;;;;;;;;;;;;;29.33;38.35;94313.97;5149508;27;1157;-57
2023/08/30 12:23:34;;;;;;;;;;;;;;;29.50;38.40;94318.94;5134347;27;1048;-57
2023/08/30 12:26:06;;;;;;;;;;;;;;;29.41;39.24;94304.25;5134580;27;960;-57
2023/08/30 12:28:34;;;;;;;;;;;;;;;29.26;39.45;94281.34;5134420;27;1909;-56
2023/08/30 12:31:00;;;;;;;;;;;;;;;29.23;38.58;94292.13;5134419;27;1028;-56
2023/08/30 12:33:26;;;;;;;;;;;;;;;29.38;39.78;94295.44;5134521;27;1041;-56
2023/08/30 12:35:52;;;;;;;;;;;;;;;29.39;38.74;94297.09;5133403;27;2582;-56
2023/08/30 12:38:18;;;;;;;;;;;;;;;29.41;38.46;94298.72;5134164;27;1135;-56
2023/08/30 12:40:45;;;;;;;;;;;;;;;29.38;38.38;94292.69;5136254;27;2495;-56
2023/08/30 12:43:12;;;;;;;;;;;;;;;29.36;38.08;94294.09;5155003;27;1019;-57
2023/08/30 12:45:39;;;;;;;;;;;;;;;29.54;38.39;94286.94;5154943;27;976;-57
2023/08/30 12:48:05;;;;;;;;;;;;;;;29.73;37.36;94290.47;5158567;27;1913;-56
2023/08/30 12:50:33;;;;;;;;;;;;;;;29.79;35.57;94302.22;5159496;27;960;-57
2023/08/30 12:52:59;;;;;;;;;;;;;;;29.87;37.10;94300.72;5140556;27;1126;-57
2023/08/30 12:55:25;;;;;;;;;;;;;;;29.64;35.28;94307.97;5159429;27;961;-57